createdAt,value
2022-08-17T00:00:06.653Z,99.99
2022-08-17T00:01:07.052Z,99.99
2022-08-17T00:02:25.376Z,99.99
2022-08-17T00:03:07.755Z,99.99
2022-08-17T00:04:11.633Z,99.99
2022-08-17T00:05:08.488Z,99.99
2022-08-17T00:06:08.798Z,99.99
2022-08-17T00:07:09.164Z,99.99
2022-08-17T00:08:09.532Z,99.99
2022-08-17T00:09:09.891Z,99.99
2022-08-17T00:10:10.252Z,99.99
2022-08-17T00:11:10.613Z,99.99
2022-08-17T00:12:41.714Z,99.99
2022-08-17T00:13:11.372Z,99.99
2022-08-17T00:14:11.709Z,99.99
2022-08-17T00:15:12.054Z,99.99
2022-08-17T00:16:12.412Z,99.99
2022-08-17T00:17:12.793Z,99.99
2022-08-17T00:19:02.015Z,99.99
2022-08-17T00:19:13.502Z,99.99
2022-08-17T00:20:13.858Z,99.99
2022-08-17T00:21:14.222Z,99.99
2022-08-17T00:22:33.121Z,99.99
2022-08-17T00:23:14.989Z,99.99
2022-08-17T00:24:15.331Z,99.99
2022-08-17T00:25:15.679Z,99.99
2022-08-17T00:26:16.038Z,99.99
2022-08-17T00:27:16.415Z,99.99
2022-08-17T00:28:16.795Z,99.99
2022-08-17T00:29:20.037Z,99.99
2022-08-17T00:30:17.565Z,99.99
2022-08-17T00:31:17.877Z,99.99
2022-08-17T00:33:11.806Z,99.99
2022-08-17T00:33:21.271Z,99.99
2022-08-17T00:34:19.001Z,99.99
2022-08-17T00:35:19.321Z,99.99
2022-08-17T00:36:19.674Z,99.99
2022-08-17T00:37:20.052Z,99.99
2022-08-17T00:38:20.440Z,99.99
2022-08-17T00:39:20.792Z,99.99
2022-08-17T00:40:21.170Z,99.99
2022-08-17T00:41:21.530Z,99.99
2022-08-17T00:42:21.879Z,99.99
2022-08-17T00:43:22.241Z,99.99
2022-08-17T00:44:22.637Z,99.99
2022-08-17T00:45:22.977Z,99.99
2022-08-17T00:46:23.353Z,99.99
2022-08-17T00:47:23.733Z,99.99
2022-08-17T00:48:29.662Z,99.99
2022-08-17T00:49:24.506Z,99.99
2022-08-17T00:50:24.798Z,99.99
2022-08-17T00:51:25.120Z,99.99
2022-08-17T00:52:25.470Z,99.99
2022-08-17T00:53:25.844Z,99.99
2022-08-17T00:54:26.222Z,99.99
2022-08-17T00:55:26.598Z,99.99
2022-08-17T00:56:26.960Z,99.99
2022-08-17T00:57:27.369Z,99.99
2022-08-17T00:58:35.726Z,99.99
2022-08-17T00:59:28.085Z,99.99
2022-08-17T01:00:28.514Z,99.99
2022-08-17T01:01:28.847Z,99.99
2022-08-17T01:02:29.186Z,99.99
2022-08-17T01:03:29.509Z,99.99
2022-08-17T01:04:29.880Z,99.99
2022-08-17T01:05:30.253Z,99.99
2022-08-17T01:06:30.606Z,99.99
2022-08-17T01:07:30.984Z,99.99
2022-08-17T01:08:31.379Z,99.99
2022-08-17T01:09:31.703Z,99.99
2022-08-17T01:11:00.145Z,99.99
2022-08-17T01:11:32.420Z,99.99
2022-08-17T01:12:32.797Z,99.99
2022-08-17T01:13:38.159Z,99.99
2022-08-17T01:14:33.532Z,99.99
2022-08-17T01:15:33.893Z,99.99
2022-08-17T01:16:34.257Z,99.99
2022-08-17T01:17:34.650Z,99.99
2022-08-17T01:18:34.998Z,99.99
2022-08-17T01:19:35.392Z,99.99
2022-08-17T01:20:43.129Z,99.99
2022-08-17T01:21:36.084Z,99.99
2022-08-17T01:22:36.448Z,99.99
2022-08-17T01:23:36.815Z,99.99
2022-08-17T01:24:37.194Z,99.99
2022-08-17T01:25:37.529Z,99.99
2022-08-17T01:26:37.887Z,99.99
2022-08-17T01:27:38.318Z,99.99
2022-08-17T01:28:54.491Z,99.99
2022-08-17T01:29:38.995Z,99.99
2022-08-17T01:30:58.802Z,99.99
2022-08-17T01:31:39.747Z,99.99
2022-08-17T01:32:40.090Z,99.99
2022-08-17T01:33:40.459Z,99.99
2022-08-17T01:34:43.580Z,99.99
2022-08-17T01:35:41.334Z,99.99
2022-08-17T01:36:41.597Z,99.99
2022-08-17T01:37:41.953Z,99.99
2022-08-17T01:38:42.321Z,99.99
2022-08-17T01:39:42.735Z,99.99
2022-08-17T01:40:43.059Z,99.99
2022-08-17T01:41:43.443Z,99.99
2022-08-17T01:42:43.795Z,99.99
2022-08-17T01:43:44.139Z,99.99
2022-08-17T01:44:44.535Z,99.99
2022-08-17T01:45:44.868Z,99.99
2022-08-17T01:46:45.284Z,99.99
2022-08-17T01:47:45.594Z,99.99
2022-08-17T01:48:45.985Z,99.99
2022-08-17T01:49:46.399Z,99.99
2022-08-17T01:50:46.686Z,99.99
2022-08-17T01:51:47.061Z,99.99
2022-08-17T01:52:47.524Z,99.99
2022-08-17T01:53:47.806Z,99.99
2022-08-17T01:54:48.408Z,99.99
2022-08-17T01:55:48.617Z,99.99
2022-08-17T01:56:48.848Z,99.99
2022-08-17T01:57:49.254Z,99.99
2022-08-17T01:58:49.585Z,99.99
2022-08-17T01:59:49.991Z,99.99
2022-08-17T02:01:00.631Z,99.99
2022-08-17T02:01:50.822Z,99.99
2022-08-17T02:02:51.251Z,99.99
2022-08-17T02:03:56.135Z,99.99
2022-08-17T02:04:51.794Z,99.99
2022-08-17T02:05:52.153Z,99.99
2022-08-17T02:06:54.581Z,99.99
2022-08-17T02:08:00.258Z,99.99
2022-08-17T02:09:02.835Z,99.99
2022-08-17T02:09:53.603Z,99.99
2022-08-17T02:10:53.911Z,99.99
2022-08-17T02:11:54.354Z,99.99
2022-08-17T02:12:54.784Z,99.99
2022-08-17T02:14:02.485Z,99.99
2022-08-17T02:14:55.392Z,99.99
2022-08-17T02:15:55.752Z,99.99
2022-08-17T02:16:56.136Z,99.99
2022-08-17T02:17:56.484Z,99.99
2022-08-17T02:18:56.829Z,99.99
2022-08-17T02:19:57.230Z,99.99
2022-08-17T02:20:57.540Z,99.99
2022-08-17T02:21:57.938Z,99.99
2022-08-17T02:22:58.289Z,99.99
2022-08-17T02:23:58.645Z,99.99
2022-08-17T02:25:02.181Z,99.99
2022-08-17T02:25:59.392Z,99.99
2022-08-17T02:26:59.758Z,99.99
2022-08-17T02:28:00.140Z,99.99
2022-08-17T02:29:00.527Z,99.99
2022-08-17T02:30:00.880Z,99.99
2022-08-17T02:31:03.172Z,99.99
2022-08-17T02:32:01.593Z,99.99
2022-08-17T02:33:04.153Z,99.99
2022-08-17T02:34:04.602Z,99.99
2022-08-17T02:35:02.682Z,99.99
2022-08-17T02:36:03.063Z,99.99
2022-08-17T02:37:03.394Z,99.99
2022-08-17T02:38:03.783Z,99.99
2022-08-17T02:39:04.127Z,99.99
2022-08-17T02:40:04.528Z,99.99
2022-08-17T02:41:04.854Z,99.99
2022-08-17T02:42:05.213Z,99.99
2022-08-17T02:43:05.566Z,99.99
2022-08-17T02:44:06.003Z,99.99
2022-08-17T02:45:06.298Z,99.99
2022-08-17T02:46:06.654Z,99.99
2022-08-17T02:47:07.013Z,99.99
2022-08-17T02:48:07.394Z,99.99
2022-08-17T02:49:07.742Z,99.99
2022-08-17T02:50:08.466Z,99.99
2022-08-17T02:51:08.465Z,99.99
2022-08-17T02:52:08.847Z,99.99
2022-08-17T02:53:09.171Z,99.99
2022-08-17T02:54:40.445Z,99.99
2022-08-17T02:55:09.966Z,99.99
2022-08-17T02:56:10.282Z,99.99
2022-08-17T02:57:10.646Z,99.99
2022-08-17T02:58:11.013Z,99.99
2022-08-17T02:59:11.384Z,99.99
2022-08-17T03:00:11.766Z,99.99
2022-08-17T03:01:12.123Z,99.99
2022-08-17T03:02:12.489Z,99.99
2022-08-17T03:03:12.859Z,99.99
2022-08-17T03:04:13.166Z,99.99
2022-08-17T03:05:13.542Z,99.99
2022-08-17T03:06:13.886Z,99.99
2022-08-17T03:07:14.255Z,99.99
2022-08-17T03:08:14.635Z,99.99
2022-08-17T03:09:15.003Z,99.99
2022-08-17T03:10:15.409Z,99.99
2022-08-17T03:11:15.756Z,99.99
2022-08-17T03:12:16.031Z,99.99
2022-08-17T03:13:16.407Z,99.99
2022-08-17T03:14:16.756Z,99.99
2022-08-17T03:15:17.144Z,99.99
2022-08-17T03:16:17.495Z,99.99
2022-08-17T03:17:17.868Z,99.99
2022-08-17T03:18:19.269Z,99.99
2022-08-17T03:19:18.593Z,99.99
2022-08-17T03:20:19.002Z,99.99
2022-08-17T03:21:19.371Z,99.99
2022-08-17T03:22:35.415Z,99.99
2022-08-17T03:23:24.079Z,99.99
2022-08-17T03:24:20.516Z,99.99
2022-08-17T03:25:21.143Z,99.99
2022-08-17T03:26:21.078Z,99.99
2022-08-17T03:27:21.255Z,99.99
2022-08-17T03:28:21.418Z,99.99
2022-08-17T03:29:21.590Z,99.99
2022-08-17T03:30:21.778Z,99.99
2022-08-17T03:31:21.951Z,99.99
2022-08-17T03:32:22.151Z,99.99
2022-08-17T03:33:22.297Z,99.99
2022-08-17T03:34:22.472Z,99.99
2022-08-17T03:35:22.652Z,99.99
2022-08-17T03:36:22.913Z,99.99
2022-08-17T03:37:23.128Z,99.99
2022-08-17T03:38:23.454Z,99.99
2022-08-17T03:39:23.556Z,99.99
2022-08-17T03:40:55.129Z,99.99
2022-08-17T03:41:23.921Z,99.99
2022-08-17T03:42:31.443Z,99.99
2022-08-17T03:43:24.393Z,99.99
2022-08-17T03:44:24.676Z,99.99
2022-08-17T03:45:24.875Z,99.99
2022-08-17T03:46:27.704Z,99.99
2022-08-17T03:47:25.258Z,99.99
2022-08-17T03:48:25.405Z,99.99
2022-08-17T03:49:25.696Z,99.99
2022-08-17T03:50:26.019Z,99.99
2022-08-17T03:51:26.141Z,99.99
2022-08-17T03:52:26.599Z,99.99
2022-08-17T03:53:26.667Z,99.99
2022-08-17T03:54:26.904Z,99.99
2022-08-17T03:55:35.749Z,99.99
2022-08-17T03:56:27.504Z,99.99
2022-08-17T03:57:27.785Z,99.99
2022-08-17T03:58:28.094Z,99.99
2022-08-17T03:59:28.260Z,99.99
2022-08-17T04:00:28.463Z,99.99
2022-08-17T04:01:28.611Z,99.99
2022-08-17T04:02:28.766Z,99.99
2022-08-17T04:03:28.949Z,99.99
2022-08-17T04:04:29.168Z,99.99
2022-08-17T04:05:29.397Z,99.99
2022-08-17T04:06:29.505Z,99.99
2022-08-17T04:07:29.721Z,99.99
2022-08-17T04:08:29.886Z,99.99
2022-08-17T04:09:30.059Z,99.99
2022-08-17T04:10:30.246Z,99.99
2022-08-17T04:11:30.520Z,99.99
2022-08-17T04:12:31.138Z,99.99
2022-08-17T04:13:31.025Z,99.99
2022-08-17T04:14:31.172Z,99.99
2022-08-17T04:15:31.386Z,99.99
2022-08-17T04:16:31.546Z,99.99
2022-08-17T04:17:31.723Z,99.99
2022-08-17T04:18:31.900Z,99.99
2022-08-17T04:19:32.113Z,99.99
2022-08-17T04:20:32.292Z,99.99
2022-08-17T04:21:32.460Z,99.99
2022-08-17T04:22:34.413Z,99.99
2022-08-17T04:23:32.807Z,99.99
2022-08-17T04:24:32.992Z,99.99
2022-08-17T04:25:33.175Z,99.99
2022-08-17T04:26:52.801Z,99.99
2022-08-17T04:27:33.548Z,99.99
2022-08-17T04:28:33.730Z,99.99
2022-08-17T04:29:49.938Z,99.99
2022-08-17T04:30:34.216Z,99.99
2022-08-17T04:31:34.373Z,99.99
2022-08-17T04:33:05.320Z,99.99
2022-08-17T04:33:34.830Z,99.99
2022-08-17T04:34:35.021Z,99.99
2022-08-17T04:35:35.200Z,99.99
2022-08-17T04:36:35.374Z,99.99
2022-08-17T04:37:35.566Z,99.99
2022-08-17T04:38:35.750Z,99.99
2022-08-17T04:39:35.948Z,99.99
2022-08-17T04:40:36.089Z,99.99
2022-08-17T04:41:36.240Z,99.99
2022-08-17T04:42:36.440Z,99.99
2022-08-17T04:43:36.615Z,99.99
2022-08-17T04:44:37.951Z,99.99
2022-08-17T04:45:36.991Z,99.99
2022-08-17T04:46:37.140Z,99.99
2022-08-17T04:47:37.373Z,99.99
2022-08-17T04:48:37.779Z,99.99
2022-08-17T04:49:37.697Z,99.99
2022-08-17T04:50:37.964Z,99.99
2022-08-17T04:51:38.084Z,99.99
2022-08-17T04:52:43.648Z,99.99
2022-08-17T04:53:38.492Z,99.99
2022-08-17T04:54:38.654Z,99.99
2022-08-17T04:55:38.869Z,99.99
2022-08-17T04:56:39.065Z,99.99
2022-08-17T04:57:44.532Z,99.99
2022-08-17T04:58:39.461Z,99.99
2022-08-17T04:59:39.681Z,99.99
2022-08-17T05:00:39.835Z,99.99
2022-08-17T05:01:40.021Z,99.99
2022-08-17T05:02:49.925Z,99.99
2022-08-17T05:03:40.355Z,99.99
2022-08-17T05:04:40.537Z,99.99
2022-08-17T05:05:40.715Z,99.99
2022-08-17T05:06:40.878Z,99.99
2022-08-17T05:07:41.088Z,99.99
2022-08-17T05:08:41.267Z,99.99
2022-08-17T05:09:41.460Z,99.99
2022-08-17T05:10:45.177Z,99.99
2022-08-17T05:11:45.023Z,99.99
2022-08-17T05:12:42.021Z,99.99
2022-08-17T05:13:42.226Z,99.99
2022-08-17T05:14:42.435Z,99.99
2022-08-17T05:15:44.980Z,99.99
2022-08-17T05:16:42.810Z,99.99
2022-08-17T05:17:42.969Z,99.99
2022-08-17T05:18:43.184Z,99.99
2022-08-17T05:19:43.381Z,99.99
2022-08-17T05:20:43.595Z,99.99
2022-08-17T05:21:43.729Z,99.99
2022-08-17T05:22:43.912Z,99.99
2022-08-17T05:23:44.087Z,99.99
2022-08-17T05:24:53.376Z,99.99
2022-08-17T05:25:46.248Z,99.99
2022-08-17T05:26:44.657Z,99.99
2022-08-17T05:27:44.832Z,99.99
2022-08-17T05:28:45.034Z,99.99
2022-08-17T05:29:45.231Z,99.99
2022-08-17T05:30:45.435Z,99.00
2022-08-17T05:31:45.573Z,98.35
2022-08-17T05:32:45.772Z,98.25
2022-08-17T05:33:46.160Z,97.20
2022-08-17T05:34:46.140Z,96.80
2022-08-17T05:35:46.372Z,95.54
2022-08-17T05:36:46.508Z,95.34
2022-08-17T05:37:46.716Z,94.94
2022-08-17T05:38:46.893Z,94.54
2022-08-17T05:39:47.142Z,94.64
2022-08-17T05:40:47.316Z,95.24
2022-08-17T05:41:47.470Z,95.64
2022-08-17T05:42:47.674Z,95.79
2022-08-17T05:43:47.845Z,95.79
2022-08-17T05:44:48.037Z,95.75
2022-08-17T05:45:55.229Z,95.50
2022-08-17T05:46:48.412Z,94.35
2022-08-17T05:47:48.603Z,93.65
2022-08-17T05:48:48.805Z,93.00
2022-08-17T05:49:49.943Z,92.85
2022-08-17T05:50:49.220Z,91.81
2022-08-17T05:51:49.363Z,91.31
2022-08-17T05:52:49.774Z,91.01
2022-08-17T05:53:49.749Z,90.56
2022-08-17T05:54:49.942Z,90.46
2022-08-17T05:55:50.122Z,89.92
2022-08-17T05:56:50.292Z,88.98
2022-08-17T05:57:53.796Z,89.22
2022-08-17T05:58:50.649Z,89.32
2022-08-17T05:59:50.847Z,89.32
2022-08-17T06:00:51.236Z,89.42
2022-08-17T06:01:51.279Z,90.06
2022-08-17T06:02:51.754Z,90.66
2022-08-17T06:03:51.608Z,91.31
2022-08-17T06:04:51.821Z,91.71
2022-08-17T06:05:51.996Z,91.81
2022-08-17T06:06:52.258Z,91.77
2022-08-17T06:07:52.365Z,91.32
2022-08-17T06:08:52.516Z,91.22
2022-08-17T06:09:52.768Z,91.82
2022-08-17T06:10:52.971Z,91.92
2022-08-17T06:11:53.326Z,92.27
2022-08-17T06:12:53.282Z,93.31
2022-08-17T06:13:53.468Z,93.81
2022-08-17T06:14:53.666Z,94.46
2022-08-17T06:15:53.909Z,94.86
2022-08-17T06:16:54.066Z,94.86
2022-08-17T06:17:54.261Z,95.06
2022-08-17T06:18:54.458Z,94.86
2022-08-17T06:19:54.675Z,95.16
2022-08-17T06:20:54.881Z,95.66
2022-08-17T06:21:55.064Z,95.06
2022-08-17T06:22:55.277Z,95.47
2022-08-17T06:23:55.401Z,95.86
2022-08-17T06:24:55.603Z,95.97
2022-08-17T06:25:55.780Z,95.86
2022-08-17T06:26:55.946Z,95.66
2022-08-17T06:27:56.166Z,95.16
2022-08-17T06:28:56.330Z,95.16
2022-08-17T06:29:56.562Z,95.76
2022-08-17T06:30:58.669Z,95.47
2022-08-17T06:31:56.905Z,95.97
2022-08-17T06:32:57.061Z,95.66
2022-08-17T06:33:57.249Z,95.86
2022-08-17T06:34:57.443Z,95.06
2022-08-17T06:35:57.672Z,95.26
2022-08-17T06:36:57.863Z,94.82
2022-08-17T06:37:58.029Z,94.92
2022-08-17T06:38:58.217Z,95.01
2022-08-17T06:39:58.516Z,94.47
2022-08-17T06:40:58.603Z,93.97
2022-08-17T06:41:58.814Z,94.27
2022-08-17T06:43:06.605Z,93.87
2022-08-17T06:43:59.207Z,93.93
2022-08-17T06:44:59.391Z,93.12
2022-08-17T06:45:59.566Z,93.02
2022-08-17T06:46:59.754Z,92.42
2022-08-17T06:47:59.993Z,92.52
2022-08-17T06:49:00.164Z,92.48
2022-08-17T06:50:00.343Z,92.68
2022-08-17T06:51:00.583Z,92.28
2022-08-17T06:52:00.729Z,91.98
2022-08-17T06:53:01.099Z,91.98
2022-08-17T06:54:01.108Z,91.67
2022-08-17T06:55:01.252Z,92.03
2022-08-17T06:56:01.477Z,91.33
2022-08-17T06:57:01.656Z,91.44
2022-08-17T06:58:01.814Z,90.69
2022-08-17T06:59:02.011Z,90.69
2022-08-17T07:00:02.216Z,89.99
2022-08-17T07:01:02.395Z,90.19
2022-08-17T07:02:02.543Z,89.79
2022-08-17T07:03:03.007Z,89.45
2022-08-17T07:04:05.039Z,87.85
2022-08-17T07:05:03.126Z,88.65
2022-08-17T07:06:03.313Z,88.85
2022-08-17T07:07:03.482Z,88.55
2022-08-17T07:08:03.709Z,88.01
2022-08-17T07:09:03.854Z,87.71
2022-08-17T07:10:04.056Z,87.01
2022-08-17T07:11:04.270Z,87.51
2022-08-17T07:12:04.454Z,87.61
2022-08-17T07:13:04.627Z,87.46
2022-08-17T07:14:04.866Z,87.16
2022-08-17T07:15:05.019Z,86.22
2022-08-17T07:16:05.218Z,86.13
2022-08-17T07:17:05.381Z,85.69
2022-08-17T07:18:05.615Z,85.35
2022-08-17T07:19:05.785Z,84.65
2022-08-17T07:20:05.980Z,84.35
2022-08-17T07:21:06.202Z,84.35
2022-08-17T07:22:06.368Z,84.25
2022-08-17T07:23:06.566Z,83.75
2022-08-17T07:24:06.795Z,84.05
2022-08-17T07:25:06.987Z,83.95
2022-08-17T07:26:07.184Z,84.05
2022-08-17T07:27:07.326Z,84.35
2022-08-17T07:28:07.523Z,83.45
2022-08-17T07:29:07.666Z,83.89
2022-08-17T07:30:10.555Z,84.39
2022-08-17T07:31:08.060Z,84.89
2022-08-17T07:32:08.250Z,84.45
2022-08-17T07:33:08.459Z,84.11
2022-08-17T07:34:08.651Z,83.51
2022-08-17T07:35:10.870Z,83.21
2022-08-17T07:36:09.023Z,82.81
2022-08-17T07:37:09.214Z,82.87
2022-08-17T07:38:25.028Z,83.21
2022-08-17T07:39:09.557Z,83.31
2022-08-17T07:40:16.416Z,83.81
2022-08-17T07:41:09.966Z,83.31
2022-08-17T07:42:10.090Z,83.17
2022-08-17T07:43:15.547Z,82.87
2022-08-17T07:44:10.493Z,82.34
2022-08-17T07:45:10.685Z,82.24
2022-08-17T07:46:10.881Z,82.04
2022-08-17T07:47:11.041Z,82.04
2022-08-17T07:48:11.250Z,82.04
2022-08-17T07:49:11.451Z,81.80
2022-08-17T07:50:11.604Z,81.60
2022-08-17T07:51:11.870Z,80.71
2022-08-17T07:52:47.378Z,81.20
2022-08-17T07:53:12.184Z,80.47
2022-08-17T07:54:14.717Z,80.47
2022-08-17T07:55:12.555Z,80.13
2022-08-17T07:56:12.783Z,79.53
2022-08-17T07:57:12.949Z,79.83
2022-08-17T07:58:13.148Z,79.83
2022-08-17T07:59:13.323Z,79.77
2022-08-17T08:00:16.342Z,79.97
2022-08-17T08:01:13.772Z,78.94
2022-08-17T08:02:13.977Z,78.74
2022-08-17T08:03:14.116Z,79.14
2022-08-17T08:04:19.302Z,79.24
2022-08-17T08:05:14.479Z,78.84
2022-08-17T08:06:14.706Z,78.20
2022-08-17T08:07:14.858Z,78.17
2022-08-17T08:08:15.103Z,77.57
2022-08-17T08:09:15.221Z,77.37
2022-08-17T08:10:15.368Z,76.97
2022-08-17T08:11:15.765Z,77.27
2022-08-17T08:12:16.075Z,77.23
2022-08-17T08:13:15.927Z,76.54
2022-08-17T08:14:16.158Z,77.47
2022-08-17T08:15:16.312Z,77.47
2022-08-17T08:16:16.542Z,76.64
2022-08-17T08:17:16.784Z,76.74
2022-08-17T08:18:16.899Z,76.97
2022-08-17T08:19:20.878Z,77.23
2022-08-17T08:20:37.720Z,76.64
2022-08-17T08:21:17.510Z,75.61
2022-08-17T08:22:17.758Z,74.58
2022-08-17T08:23:17.966Z,74.72
2022-08-17T08:24:18.039Z,76.14
2022-08-17T08:25:18.238Z,75.41
2022-08-17T08:26:18.960Z,75.41
2022-08-17T08:27:18.608Z,75.35
2022-08-17T08:28:18.790Z,75.31
2022-08-17T08:29:19.021Z,75.01
2022-08-17T08:30:19.211Z,74.82
2022-08-17T08:31:19.374Z,75.35
2022-08-17T08:32:19.526Z,75.05
2022-08-17T08:33:19.741Z,74.85
2022-08-17T08:34:58.952Z,75.01
2022-08-17T08:35:20.162Z,75.51
2022-08-17T08:36:57.133Z,74.19
2022-08-17T08:37:32.257Z,73.85
2022-08-17T08:38:20.677Z,74.38
2022-08-17T08:39:20.824Z,74.78
2022-08-17T08:40:21.022Z,74.55
2022-08-17T08:41:21.231Z,73.91
2022-08-17T08:42:21.445Z,72.73
2022-08-17T08:43:21.632Z,72.30
2022-08-17T08:44:21.878Z,72.00
2022-08-17T08:45:21.984Z,69.89
2022-08-17T08:46:22.194Z,69.32
2022-08-17T08:47:22.392Z,70.91
2022-08-17T08:48:53.000Z,70.61
2022-08-17T08:49:34.017Z,70.02
2022-08-17T08:50:31.809Z,70.34
2022-08-17T08:51:23.198Z,69.46
2022-08-17T08:52:23.351Z,68.73
2022-08-17T08:53:23.547Z,69.02
2022-08-17T08:54:26.711Z,68.76
2022-08-17T08:55:23.876Z,69.32
2022-08-17T08:56:24.084Z,70.12
2022-08-17T08:57:30.829Z,69.59
2022-08-17T08:58:31.908Z,69.09
2022-08-17T08:59:24.630Z,69.09
2022-08-17T09:00:24.853Z,68.66
2022-08-17T09:01:25.050Z,66.62
2022-08-17T09:02:25.227Z,66.69
2022-08-17T09:03:43.789Z,65.27
2022-08-17T09:04:25.983Z,64.52
2022-08-17T09:05:25.746Z,63.66
2022-08-17T09:06:32.181Z,63.46
2022-08-17T09:07:26.139Z,61.33
2022-08-17T09:08:26.359Z,59.36
2022-08-17T09:09:26.519Z,59.50
2022-08-17T09:10:26.719Z,58.16
2022-08-17T09:11:26.912Z,58.91
2022-08-17T09:12:27.066Z,59.53
2022-08-17T09:13:27.273Z,58.36
2022-08-17T09:14:27.448Z,57.94
2022-08-17T09:15:27.760Z,57.45
2022-08-17T09:16:27.818Z,57.64
2022-08-17T09:17:28.025Z,58.16
2022-08-17T09:19:03.565Z,57.39
2022-08-17T09:19:28.336Z,56.70
2022-08-17T09:20:28.851Z,57.67
2022-08-17T09:21:28.754Z,58.46
2022-08-17T09:22:28.962Z,57.15
2022-08-17T09:23:29.107Z,56.66
2022-08-17T09:24:29.337Z,57.48
2022-08-17T09:25:29.495Z,58.00
2022-08-17T09:26:29.722Z,59.17
2022-08-17T09:27:29.865Z,57.74
2022-08-17T09:28:30.061Z,58.74
2022-08-17T09:29:30.270Z,59.83
2022-08-17T09:30:30.465Z,60.12
2022-08-17T09:31:33.362Z,59.20
2022-08-17T09:32:30.898Z,59.75
2022-08-17T09:33:31.046Z,60.57
2022-08-17T09:34:33.137Z,60.47
2022-08-17T09:35:36.669Z,60.87
2022-08-17T09:36:31.689Z,60.38
2022-08-17T09:37:31.854Z,60.67
2022-08-17T09:38:32.810Z,60.35
2022-08-17T09:39:32.306Z,59.98
2022-08-17T09:40:32.442Z,59.91
2022-08-17T09:41:32.647Z,60.11
2022-08-17T09:42:32.817Z,60.18
2022-08-17T09:43:33.064Z,59.46
2022-08-17T09:44:33.237Z,57.59
2022-08-17T09:45:33.436Z,58.18
2022-08-17T09:46:33.642Z,57.01
2022-08-17T09:47:33.860Z,56.71
2022-08-17T09:48:34.038Z,56.00
2022-08-17T09:49:34.313Z,56.79
2022-08-17T09:50:55.291Z,56.91
2022-08-17T09:51:34.696Z,56.49
2022-08-17T09:52:34.806Z,56.42
2022-08-17T09:53:34.982Z,56.10
2022-08-17T09:54:39.921Z,56.49
2022-08-17T09:55:35.372Z,56.49
2022-08-17T09:56:35.577Z,57.11
2022-08-17T09:57:35.770Z,57.79
2022-08-17T09:58:35.970Z,57.31
2022-08-17T09:59:38.481Z,57.50
2022-08-17T10:00:36.361Z,56.94
2022-08-17T10:01:36.701Z,57.21
2022-08-17T10:02:36.773Z,56.71
2022-08-17T10:03:36.958Z,57.31
2022-08-17T10:04:37.168Z,56.10
2022-08-17T10:05:37.380Z,55.48
2022-08-17T10:06:37.626Z,56.84
2022-08-17T10:07:37.780Z,56.05
2022-08-17T10:08:37.962Z,57.26
2022-08-17T10:09:38.214Z,57.06
2022-08-17T10:10:38.377Z,56.74
2022-08-17T10:11:38.589Z,56.08
2022-08-17T10:12:38.756Z,56.45
2022-08-17T10:13:38.979Z,55.73
2022-08-17T10:14:43.810Z,55.28
2022-08-17T10:15:42.422Z,55.16
2022-08-17T10:16:39.601Z,54.60
2022-08-17T10:17:39.834Z,54.86
2022-08-17T10:18:40.008Z,53.16
2022-08-17T10:19:40.227Z,54.47
2022-08-17T10:20:40.392Z,54.20
2022-08-17T10:21:40.664Z,55.51
2022-08-17T10:22:40.811Z,53.70
2022-08-17T10:23:41.026Z,53.49
2022-08-17T10:24:41.183Z,53.68
2022-08-17T10:25:56.724Z,55.14
2022-08-17T10:26:55.479Z,56.27
2022-08-17T10:27:41.841Z,54.18
2022-08-17T10:28:41.991Z,53.24
2022-08-17T10:29:48.634Z,51.91
2022-08-17T10:30:42.401Z,51.52
2022-08-17T10:31:42.601Z,51.52
2022-08-17T10:32:42.810Z,51.28
2022-08-17T10:33:43.058Z,51.54
2022-08-17T10:34:43.225Z,51.35
2022-08-17T10:35:43.457Z,51.40
2022-08-17T10:36:43.670Z,50.90
2022-08-17T10:37:43.932Z,50.81
2022-08-17T10:38:44.028Z,50.32
2022-08-17T10:39:52.098Z,51.72
2022-08-17T10:40:44.400Z,51.42
2022-08-17T10:41:44.607Z,50.24
2022-08-17T10:42:44.820Z,51.59
2022-08-17T10:44:37.603Z,50.42
2022-08-17T10:44:45.496Z,50.90
2022-08-17T10:45:45.428Z,51.91
2022-08-17T10:46:45.662Z,51.89
2022-08-17T10:47:55.124Z,50.83
2022-08-17T10:48:46.085Z,51.79
2022-08-17T10:49:46.299Z,51.00
2022-08-17T10:50:46.490Z,50.59
2022-08-17T10:51:46.761Z,49.63
2022-08-17T10:52:46.848Z,50.19
2022-08-17T10:53:47.048Z,50.90
2022-08-17T10:54:47.237Z,51.42
2022-08-17T10:55:47.428Z,52.53
2022-08-17T10:56:47.626Z,51.91
2022-08-17T10:57:47.923Z,51.76
2022-08-17T10:58:48.016Z,51.15
2022-08-17T10:59:48.323Z,50.27
2022-08-17T11:00:48.557Z,50.14
2022-08-17T11:01:48.641Z,51.10
2022-08-17T11:02:48.927Z,51.40
2022-08-17T11:03:49.063Z,51.64
2022-08-17T11:04:49.258Z,51.93
2022-08-17T11:05:49.435Z,52.06
2022-08-17T11:06:49.661Z,51.93
2022-08-17T11:07:49.836Z,52.11
2022-08-17T11:08:50.030Z,52.18
2022-08-17T11:09:50.220Z,51.45
2022-08-17T11:10:52.245Z,50.37
2022-08-17T11:11:50.637Z,50.78
2022-08-17T11:12:51.077Z,50.78
2022-08-17T11:13:51.041Z,51.03
2022-08-17T11:14:51.238Z,51.84
2022-08-17T11:15:51.476Z,52.36
2022-08-17T11:16:51.645Z,52.72
2022-08-17T11:17:51.849Z,52.06
2022-08-17T11:18:52.043Z,51.76
2022-08-17T11:19:52.238Z,51.67
2022-08-17T11:20:52.463Z,52.38
2022-08-17T11:21:52.672Z,52.16
2022-08-17T11:22:52.815Z,51.05
2022-08-17T11:23:53.016Z,51.57
2022-08-17T11:24:53.249Z,52.09
2022-08-17T11:25:53.465Z,52.06
2022-08-17T11:26:53.632Z,51.84
2022-08-17T11:27:53.999Z,51.72
2022-08-17T11:28:54.026Z,51.57
2022-08-17T11:29:59.503Z,52.38
2022-08-17T11:30:54.455Z,52.31
2022-08-17T11:31:54.615Z,52.58
2022-08-17T11:32:55.393Z,51.69
2022-08-17T11:33:55.041Z,52.16
2022-08-17T11:34:55.244Z,51.59
2022-08-17T11:35:55.439Z,52.40
2022-08-17T11:36:55.643Z,52.28
2022-08-17T11:37:55.850Z,51.37
2022-08-17T11:38:56.055Z,51.18
2022-08-17T11:39:56.247Z,51.35
2022-08-17T11:40:56.538Z,50.95
2022-08-17T11:41:56.630Z,50.66
2022-08-17T11:42:56.836Z,50.95
2022-08-17T11:43:57.058Z,50.44
2022-08-17T11:44:57.262Z,50.93
2022-08-17T11:45:57.461Z,50.42
2022-08-17T11:46:57.683Z,49.92
2022-08-17T11:48:26.133Z,50.61
2022-08-17T11:48:58.100Z,49.75
2022-08-17T11:49:58.332Z,51.05
2022-08-17T11:50:58.506Z,50.14
2022-08-17T11:51:58.751Z,50.37
2022-08-17T11:52:58.912Z,50.24
2022-08-17T11:54:21.608Z,50.51
2022-08-17T11:55:17.693Z,51.32
2022-08-17T11:55:59.564Z,49.75
2022-08-17T11:56:59.791Z,49.63
2022-08-17T11:57:59.998Z,49.73
2022-08-17T11:59:00.216Z,49.53
2022-08-17T12:00:00.369Z,49.11
2022-08-17T12:01:00.573Z,49.31
2022-08-17T12:02:00.814Z,48.72
2022-08-17T12:03:00.971Z,48.96
2022-08-17T12:04:01.218Z,49.35
2022-08-17T12:05:01.357Z,49.90
2022-08-17T12:06:01.569Z,50.56
2022-08-17T12:07:01.784Z,50.12
2022-08-17T12:08:01.950Z,49.63
2022-08-17T12:09:02.147Z,50.19
2022-08-17T12:10:02.344Z,48.55
2022-08-17T12:11:02.573Z,48.84
2022-08-17T12:12:12.465Z,49.58
2022-08-17T12:13:03.080Z,49.75
2022-08-17T12:14:03.154Z,49.82
2022-08-17T12:15:10.479Z,49.35
2022-08-17T12:16:03.608Z,49.95
2022-08-17T12:17:03.822Z,50.14
2022-08-17T12:18:04.007Z,50.49
2022-08-17T12:19:04.210Z,51.18
2022-08-17T12:20:04.421Z,50.95
2022-08-17T12:21:04.628Z,51.05
2022-08-17T12:22:04.866Z,50.88
2022-08-17T12:23:05.007Z,51.50
2022-08-17T12:24:05.246Z,51.86
2022-08-17T12:25:05.420Z,51.76
2022-08-17T12:26:05.641Z,51.57
2022-08-17T12:27:05.865Z,51.52
2022-08-17T12:28:07.822Z,51.22
2022-08-17T12:29:06.257Z,50.66
2022-08-17T12:30:06.500Z,51.32
2022-08-17T12:31:06.620Z,50.83
2022-08-17T12:32:06.858Z,50.51
2022-08-17T12:33:07.002Z,50.12
2022-08-17T12:34:07.245Z,50.63
2022-08-17T12:35:07.453Z,51.20
2022-08-17T12:36:07.608Z,50.24
2022-08-17T12:37:07.809Z,50.63
2022-08-17T12:38:30.374Z,51.12
2022-08-17T12:39:14.287Z,50.73
2022-08-17T12:40:08.556Z,51.12
2022-08-17T12:41:08.620Z,50.51
2022-08-17T12:42:08.821Z,49.43
2022-08-17T12:43:09.017Z,48.94
2022-08-17T12:44:09.228Z,48.86
2022-08-17T12:45:09.433Z,49.65
2022-08-17T12:46:13.252Z,48.86
2022-08-17T12:47:09.870Z,49.26
2022-08-17T12:48:10.046Z,49.55
2022-08-17T12:49:10.252Z,49.58
2022-08-17T12:50:29.055Z,49.87
2022-08-17T12:51:10.643Z,50.73
2022-08-17T12:52:10.921Z,49.92
2022-08-17T12:53:11.021Z,50.24
2022-08-17T12:54:11.211Z,49.82
2022-08-17T12:55:11.415Z,50.32